| time (UTC) | temp C | wind direction | speed KPH | gust KPH | rain 1hr cm | rain 24hr cm | rain mn cm | humidity % | barometer mb |
| 20260906101349 | 22 | 166 | 1.6 | 4.8 | 0.00 | 0.28 | 0.00 | 93 | 1013.5 |
| 20260906100349 | 22 | 166 | 0.0 | 4.8 | 0.00 | 0.28 | 0.00 | 94 | 1013.5 |
| 20260906095349 | 22 | 166 | 0.0 | 0.0 | 0.00 | 0.28 | 0.00 | 93 | 1013.5 |
| 20260906094349 | 22 | 166 | 0.0 | 1.6 | 0.00 | 0.28 | 0.00 | 93 | 1013.6 |
| 20260906093349 | 22 | 166 | 0.0 | 1.6 | 0.00 | 0.28 | 0.00 | 93 | 1013.6 |
| 20260906092349 | 22 | 166 | 0.0 | 1.6 | 0.00 | 0.28 | 0.00 | 93 | 1013.7 |
| 20260906091351 | 22 | 166 | 0.0 | 4.8 | 0.00 | 0.28 | 0.00 | 93 | 1013.6 |
| 20260906090349 | 22 | 160 | 1.6 | 3.2 | 0.00 | 0.28 | 0.00 | 93 | 1013.5 |
| 20260906085349 | 22 | 160 | 3.2 | 6.4 | 0.00 | 0.28 | 0.00 | 93 | 1013.5 |
| 20260906084349 | 22 | 176 | 3.2 | 11.3 | 0.00 | 0.28 | 0.00 | 93 | 1013.6 |
| 20260906083349 | 22 | 161 | 4.8 | 9.7 | 0.00 | 0.28 | 0.00 | 93 | 1013.5 |
| 20260906082349 | 22 | 174 | 1.6 | 9.7 | 0.00 | 0.28 | 0.00 | 94 | 1013.7 |
| 20260906081349 | 22 | 39 | 3.2 | 9.7 | 0.00 | 0.28 | 0.00 | 94 | 1013.6 |
| 20260906080349 | 22 | 258 | 1.6 | 3.2 | 0.00 | 0.28 | 0.00 | 94 | 1013.7 |
| 20260906075349 | 22 | 253 | 0.0 | 0.0 | 0.00 | 0.28 | 0.00 | 94 | 1013.5 |
| 20260906074349 | 22 | 253 | 0.0 | 0.0 | 0.00 | 0.28 | 0.00 | 94 | 1013.4 |
| 20260906073349 | 22 | 253 | 0.0 | 0.0 | 0.00 | 0.28 | 0.00 | 94 | 1013.2 |
| 20260906072349 | 22 | 253 | 0.0 | 0.0 | 0.00 | 0.28 | 0.28 | 94 | 1013.2 |
| 20260906071349 | 22 | 253 | 0.0 | 0.0 | 0.00 | 0.28 | 0.28 | 93 | 1013.0 |
| 20260906070349 | 22 | 253 | 0.0 | 0.0 | 0.00 | 0.28 | 0.28 | 94 | 1013.2 |
| 20260906065349 | 22 | 253 | 0.0 | 0.0 | 0.00 | 0.28 | 0.28 | 93 | 1013.1 |
| 20260906064349 | 22 | 254 | 0.0 | 0.0 | 0.00 | 0.28 | 0.28 | 93 | 1013.0 |
| 20260906063349 | 22 | 254 | 0.0 | 0.0 | 0.00 | 0.28 | 0.28 | 93 | 1013.2 |
| 20260906062349 | 22 | 254 | 0.0 | 0.0 | 0.00 | 0.28 | 0.28 | 92 | 1013.2 |
| 20260906061350 | 23 | 260 | 0.0 | 0.0 | 0.00 | 0.28 | 0.28 | 92 | 1013.1 |
| 20260906060350 | 23 | 260 | 0.0 | 0.0 | 0.00 | 0.28 | 0.28 | 92 | 1013.2 |
| 20260906055350 | 23 | 260 | 0.0 | 0.0 | 0.00 | 0.28 | 0.28 | 92 | 1013.3 |
| 20260906054350 | 23 | 187 | 0.0 | 0.0 | 0.00 | 0.28 | 0.28 | 92 | 1013.4 |
| 20260906053350 | 23 | 187 | 0.0 | 0.0 | 0.00 | 0.28 | 0.28 | 92 | 1013.6 |
| 20260906052350 | 23 | 187 | 1.6 | 3.2 | 0.00 | 0.28 | 0.28 | 92 | 1013.7 |
| 20260906051350 | 23 | 158 | 3.2 | 9.7 | 0.00 | 0.28 | 0.28 | 92 | 1013.7 |
| 20260906050350 | 23 | 158 | 3.2 | 6.4 | 0.00 | 0.28 | 0.28 | 92 | 1014.0 |
| 20260906045350 | 23 | 149 | 0.0 | 0.0 | 0.00 | 0.28 | 0.28 | 91 | 1014.0 |
| 20260906044350 | 23 | 149 | 0.0 | 0.0 | 0.00 | 0.28 | 0.28 | 91 | 1014.2 |
| 20260906043350 | 23 | 149 | 0.0 | 0.0 | 0.00 | 0.28 | 0.28 | 91 | 1014.2 |
| 20260906042350 | 24 | 149 | 0.0 | 0.0 | 0.00 | 0.28 | 0.28 | 90 | 1014.3 |
| 20260906041350 | 24 | 149 | 0.0 | 0.0 | 0.00 | 0.28 | 0.28 | 89 | 1014.2 |
| 20260906040350 | 24 | 149 | 0.0 | 0.0 | 0.00 | 0.28 | 0.28 | 89 | 1014.3 |
| 20260906035350 | 24 | 149 | 0.0 | 0.0 | 0.00 | 0.28 | 0.28 | 89 | 1014.2 |
| 20260906034350 | 24 | 149 | 0.0 | 0.0 | 0.00 | 0.28 | 0.28 | 89 | 1014.1 |
| 20260906033350 | 25 | 149 | 0.0 | 0.0 | 0.00 | 0.28 | 0.28 | 89 | 1014.2 |
| 20260906032350 | 25 | 149 | 0.0 | 0.0 | 0.00 | 0.28 | 0.28 | 87 | 1014.0 |
| 20260906031350 | 25 | 149 | 1.6 | 0.0 | 0.00 | 0.28 | 0.28 | 86 | 1013.9 |
| 20260906030350 | 25 | 149 | 1.6 | 3.2 | 0.00 | 0.28 | 0.28 | 87 | 1014.0 |
| 20260906025350 | 25 | 149 | 0.0 | 0.0 | 0.00 | 0.28 | 0.28 | 88 | 1013.9 |
| 20260906024350 | 25 | 149 | 1.6 | 4.8 | 0.00 | 0.28 | 0.28 | 88 | 1013.6 |
| 20260906023350 | 24 | 150 | 0.0 | 0.0 | 0.00 | 0.28 | 0.28 | 89 | 1013.6 |
| 20260906022350 | 24 | 150 | 0.0 | 0.0 | 0.00 | 0.28 | 0.28 | 89 | 1013.4 |
| 20260906021350 | 24 | 150 | 0.0 | 0.0 | 0.00 | 0.28 | 0.28 | 89 | 1013.6 |
| 20260906020350 | 24 | 150 | 1.6 | 1.6 | 0.00 | 0.28 | 0.28 | 89 | 1013.6 |
| 20260906015350 | 24 | 149 | 1.6 | 3.2 | 0.00 | 0.28 | 0.28 | 89 | 1013.6 |
| 20260906014350 | 25 | 149 | 3.2 | 8.0 | 0.00 | 0.28 | 0.28 | 89 | 1013.8 |
| 20260906013350 | 25 | 167 | 1.6 | 6.4 | 0.00 | 0.28 | 0.28 | 87 | 1013.8 |
| 20260906012350 | 25 | 184 | 1.6 | 3.2 | 0.00 | 0.28 | 0.28 | 86 | 1013.6 |
| 20260906011350 | 25 | 184 | 1.6 | 3.2 | 0.00 | 0.28 | 0.28 | 85 | 1013.4 |
| 20260906010350 | 25 | 208 | 1.6 | 3.2 | 0.00 | 0.28 | 0.28 | 84 | 1013.2 |
| 20260906005350 | 25 | 228 | 0.0 | 0.0 | 0.00 | 0.28 | 0.28 | 84 | 1013.2 |
| 20260906004350 | 26 | 228 | 0.0 | 0.0 | 0.00 | 0.28 | 0.28 | 83 | 1013.2 |
| 20260906003350 | 26 | 228 | 0.0 | 0.0 | 0.00 | 0.28 | 0.28 | 82 | 1013.4 |
| 20260906002350 | 26 | 228 | 0.0 | 0.0 | 0.00 | 0.28 | 0.28 | 82 | 1013.4 |
| 20260906001350 | 26 | 228 | 0.0 | 3.2 | 0.00 | 0.28 | 0.28 | 82 | 1013.3 |
| 20260906000350 | 26 | 231 | 0.0 | 1.6 | 0.00 | 0.28 | 0.28 | 80 | 1013.2 |
| 20260905235350 | 26 | 230 | 1.6 | 4.8 | 0.00 | 0.28 | 0.28 | 80 | 1013.2 |
| 20260905234350 | 27 | 159 | 1.6 | 6.4 | 0.00 | 0.28 | 0.28 | 79 | 1013.2 |
| 20260905233350 | 27 | 259 | 1.6 | 4.8 | 0.00 | 0.28 | 0.28 | 78 | 1013.2 |
| 20260905232350 | 27 | 314 | 3.2 | 8.0 | 0.00 | 0.28 | 0.28 | 78 | 1013.1 |
| 20260905231350 | 28 | 214 | 3.2 | 11.3 | 0.00 | 0.28 | 0.28 | 79 | 1013.0 |
| 20260905230350 | 28 | 244 | 3.2 | 4.8 | 0.00 | 0.28 | 0.28 | 79 | 1012.9 |
| 20260905225350 | 28 | 264 | 3.2 | 9.7 | 0.00 | 0.28 | 0.28 | 79 | 1012.9 |
| 20260905224350 | 28 | 257 | 3.2 | 9.7 | 0.00 | 0.28 | 0.28 | 79 | 1012.7 |
| 20260905223350 | 28 | 195 | 3.2 | 6.4 | 0.00 | 0.28 | 0.28 | 79 | 1012.6 |
| 20260905222350 | 29 | 171 | 3.2 | 9.7 | 0.00 | 0.28 | 0.28 | 78 | 1012.5 |
| 20260905221350 | 30 | 235 | 3.2 | 6.4 | 0.00 | 0.28 | 0.28 | 77 | 1012.6 |
| 20260905220351 | 30 | 246 | 1.6 | 4.8 | 0.00 | 0.28 | 0.28 | 76 | 1012.7 |
| 20260905215351 | 30 | 259 | 1.6 | 4.8 | 0.00 | 0.28 | 0.28 | 77 | 1012.9 |
| 20260905214351 | 30 | 254 | 1.6 | 4.8 | 0.00 | 0.28 | 0.28 | 78 | 1013.1 |
| 20260905213351 | 30 | 179 | 3.2 | 6.4 | 0.00 | 0.28 | 0.28 | 78 | 1013.1 |
| 20260905212351 | 30 | 161 | 3.2 | 6.4 | 0.00 | 0.28 | 0.28 | 79 | 1013.1 |
| 20260905211351 | 30 | 185 | 3.2 | 4.8 | 0.00 | 0.28 | 0.28 | 77 | 1013.0 |
| 20260905210351 | 30 | 187 | 1.6 | 4.8 | 0.00 | 0.28 | 0.28 | 77 | 1013.2 |
| 20260905205351 | 30 | 204 | 3.2 | 6.4 | 0.00 | 0.28 | 0.28 | 77 | 1013.3 |
| 20260905204351 | 30 | 166 | 1.6 | 4.8 | 0.00 | 0.28 | 0.28 | 78 | 1013.4 |
| 20260905203351 | 30 | 150 | 1.6 | 4.8 | 0.00 | 0.28 | 0.28 | 78 | 1013.4 |
| 20260905202351 | 29 | 153 | 1.6 | 3.2 | 0.00 | 0.28 | 0.28 | 81 | 1013.6 |
| 20260905201351 | 28 | 154 | 1.6 | 4.8 | 0.00 | 0.28 | 0.28 | 84 | 1013.7 |
| 20260905200351 | 27 | 165 | 1.6 | 6.4 | 0.00 | 0.28 | 0.28 | 88 | 1013.6 |
| 20260905195351 | 26 | 152 | 3.2 | 8.0 | 0.00 | 0.28 | 0.28 | 89 | 1013.8 |
| 20260905194351 | 26 | 180 | 3.2 | 12.9 | 0.00 | 0.28 | 0.28 | 91 | 1014.0 |
| 20260905193351 | 26 | 179 | 0.0 | 0.0 | 0.00 | 0.28 | 0.28 | 92 | 1014.1 |
| 20260905192351 | 26 | 179 | 0.0 | 0.0 | 0.00 | 0.28 | 0.28 | 92 | 1014.0 |
| 20260905191351 | 26 | 183 | 1.6 | 3.2 | 0.00 | 0.28 | 0.28 | 92 | 1014.4 |
| 20260905190351 | 26 | 197 | 1.6 | 4.8 | 0.00 | 0.28 | 0.28 | 92 | 1014.6 |
| 20260905185351 | 26 | 324 | 4.8 | 8.0 | 0.03 | 0.28 | 0.28 | 91 | 1014.6 |
| 20260905184351 | 25 | 326 | 3.2 | 8.0 | 0.28 | 0.28 | 0.28 | 91 | 1014.6 |
| 20260905183351 | 26 | 314 | 1.6 | 8.0 | 0.28 | 0.28 | 0.28 | 90 | 1014.3 |
| 20260905182351 | 26 | 260 | 1.6 | 4.8 | 0.28 | 0.28 | 0.28 | 89 | 1014.6 |
| 20260905181351 | 26 | 287 | 4.8 | 9.7 | 0.28 | 0.28 | 0.28 | 86 | 1014.5 |
| 20260905180351 | 28 | 345 | 1.6 | 4.8 | 0.28 | 0.28 | 0.28 | 80 | 1014.5 |
| 20260905175351 | 30 | 25 | 4.8 | 11.3 | 0.25 | 0.25 | 0.25 | 74 | 1014.8 |
| 20260905174351 | 33 | 345 | 3.2 | 19.3 | 0.00 | 0.00 | 0.00 | 64 | 1014.7 |
| 20260905173351 | 33 | 60 | 3.2 | 8.0 | 0.00 | 0.00 | 0.00 | 61 | 1014.7 |
| 20260905172351 | 33 | 350 | 3.2 | 16.1 | 0.00 | 0.00 | 0.00 | 61 | 1014.7 |
| 20260905171351 | 33 | 136 | 1.6 | 8.0 | 0.00 | 0.00 | 0.00 | 62 | 1014.5 |
| 20260905170351 | 33 | 42 | 1.6 | 4.8 | 0.00 | 0.00 | 0.00 | 64 | 1014.8 |
| 20260905165351 | 32 | 345 | 3.2 | 6.4 | 0.00 | 0.00 | 0.00 | 67 | 1014.9 |
| 20260905164351 | 32 | 305 | 4.8 | 8.0 | 0.00 | 0.00 | 0.00 | 66 | 1015.2 |
| 20260905163351 | 32 | 344 | 1.6 | 6.4 | 0.00 | 0.00 | 0.00 | 67 | 1015.1 |
| 20260905162351 | 31 | 264 | 1.6 | 6.4 | 0.00 | 0.00 | 0.00 | 66 | 1015.4 |
| 20260905161351 | 31 | 272 | 3.2 | 4.8 | 0.00 | 0.00 | 0.00 | 72 | 1015.4 |
| 20260905160351 | 31 | 314 | 1.6 | 6.4 | 0.00 | 0.00 | 0.00 | 71 | 1015.4 |
| 20260905155351 | 31 | 278 | 3.2 | 4.8 | 0.00 | 0.00 | 0.00 | 71 | 1015.5 |
| 20260905154351 | 31 | 161 | 1.6 | 8.0 | 0.00 | 0.00 | 0.00 | 71 | 1015.5 |
| 20260905153351 | 31 | 354 | 0.0 | 4.8 | 0.00 | 0.00 | 0.00 | 72 | 1015.5 |
| 20260905152351 | 30 | 343 | 1.6 | 4.8 | 0.00 | 0.00 | 0.00 | 74 | 1015.6 |
| 20260905151351 | 30 | 262 | 0.0 | 0.0 | 0.00 | 0.00 | 0.00 | 74 | 1015.6 |
| 20260905150351 | 29 | 272 | 0.0 | 1.6 | 0.00 | 0.00 | 0.00 | 74 | 1015.7 |
| 20260905145351 | 29 | 272 | 3.2 | 4.8 | 0.00 | 0.00 | 0.00 | 75 | 1015.8 |
| 20260905144351 | 29 | 187 | 1.6 | 4.8 | 0.00 | 0.00 | 0.00 | 77 | 1015.8 |
| 20260905143351 | 28 | 193 | 1.6 | 4.8 | 0.00 | 0.00 | 0.00 | 78 | 1015.9 |
| 20260905142351 | 27 | 313 | 3.2 | 4.8 | 0.00 | 0.00 | 0.00 | 79 | 1015.9 |
| 20260905141351 | 27 | 307 | 0.0 | 4.8 | 0.00 | 0.00 | 0.00 | 80 | 1016.0 |
| 20260905140351 | 27 | 306 | 1.6 | 4.8 | 0.00 | 0.00 | 0.00 | 82 | 1015.9 |
| 20260905135351 | 27 | 304 | 1.6 | 4.8 | 0.00 | 0.00 | 0.00 | 83 | 1016.1 |
| 20260905134351 | 26 | 281 | 0.0 | 0.0 | 0.00 | 0.00 | 0.00 | 84 | 1016.2 |
| 20260905133352 | 26 | 289 | 0.0 | 0.0 | 0.00 | 0.00 | 0.00 | 85 | 1016.3 |
| 20260905132352 | 26 | 288 | 0.0 | 0.0 | 0.00 | 0.00 | 0.00 | 86 | 1016.3 |
| 20260905131352 | 25 | 273 | 0.0 | 0.0 | 0.00 | 0.00 | 0.00 | 87 | 1016.4 |
| 20260905130352 | 25 | 272 | 0.0 | 0.0 | 0.00 | 0.00 | 0.00 | 89 | 1016.4 |
| 20260905125352 | 24 | 272 | 0.0 | 0.0 | 0.00 | 0.00 | 0.00 | 92 | 1016.4 |
| 20260905124352 | 23 | 272 | 0.0 | 0.0 | 0.00 | 0.00 | 0.00 | 92 | 1016.3 |
| 20260905123352 | 23 | 272 | 0.0 | 0.0 | 0.00 | 0.00 | 0.00 | 93 | 1016.3 |
| 20260905122352 | 23 | 273 | 0.0 | 0.0 | 0.00 | 0.00 | 0.00 | 93 | 1016.3 |
| 20260905121352 | 23 | 273 | 0.0 | 0.0 | 0.00 | 0.00 | 0.00 | 93 | 1016.2 |
| 20260905120352 | 23 | 273 | 0.0 | 0.0 | 0.00 | 0.00 | 0.00 | 94 | 1016.2 |
| 20260905115352 | 23 | 273 | 0.0 | 0.0 | 0.00 | 0.00 | 0.00 | 94 | 1016.1 |
| 20260905114352 | 22 | 273 | 0.0 | 0.0 | 0.00 | 0.00 | 0.00 | 93 | 1015.9 |
| 20260905113352 | 22 | 273 | 0.0 | 0.0 | 0.00 | 0.00 | 0.00 | 93 | 1015.7 |
| 20260905112352 | 22 | 273 | 0.0 | 0.0 | 0.00 | 0.00 | 0.00 | 93 | 1015.6 |
| 20260905111352 | 22 | 273 | 1.6 | 3.2 | 0.00 | 0.00 | 0.00 | 92 | 1015.5 |
| 20260905110352 | 23 | 273 | 0.0 | 0.0 | 0.00 | 0.00 | 0.00 | 92 | 1015.4 |
| 20260905105352 | 23 | 273 | 0.0 | 0.0 | 0.00 | 0.00 | 0.00 | 92 | 1015.2 |
| 20260905104352 | 23 | 273 | 1.6 | 4.8 | 0.00 | 0.00 | 0.00 | 92 | 1015.2 |
| 20260905103352 | 23 | 205 | 0.0 | 0.0 | 0.00 | 0.00 | 0.00 | 92 | 1015.1 |
| 20260905102352 | 23 | 205 | 1.6 | 4.8 | 0.00 | 0.00 | 0.00 | 92 | 1014.9 |